createdAt,value
2019-04-20T00:00:23.763Z,10.43
2019-04-20T00:02:59.708Z,11.47
2019-04-20T00:05:33.096Z,11.47
2019-04-20T00:08:15.067Z,12.97
2019-04-20T00:10:52.277Z,11.00
2019-04-20T00:13:30.258Z,11.10
2019-04-20T00:15:53.624Z,11.30
2019-04-20T00:18:36.913Z,11.10
2019-04-20T00:21:20.903Z,11.13
2019-04-20T00:23:56.590Z,12.17
2019-04-20T00:27:00.666Z,12.37
2019-04-20T00:29:27.737Z,10.73
2019-04-20T00:31:55.613Z,11.37
2019-04-20T00:34:27.907Z,12.27
2019-04-20T00:36:54.078Z,11.37
2019-04-20T00:39:27.970Z,13.60
2019-04-20T00:42:06.582Z,11.00
2019-04-20T00:44:39.513Z,11.10
2019-04-20T00:47:27.478Z,11.07
2019-04-20T00:50:04.099Z,11.30
2019-04-20T00:52:35.639Z,11.37
2019-04-20T00:55:00.086Z,14.20
2019-04-20T00:57:41.764Z,12.20
2019-04-20T01:00:27.361Z,10.17
2019-04-20T01:02:54.237Z,10.77
2019-04-20T01:05:53.016Z,11.10
2019-04-20T01:08:17.127Z,11.13
2019-04-20T01:10:54.176Z,10.63
2019-04-20T01:13:27.157Z,11.30
2019-04-20T01:16:08.729Z,11.93
2019-04-20T01:18:37.037Z,11.33
2019-04-20T01:21:16.502Z,11.30
2019-04-20T01:23:51.251Z,11.60
2019-04-20T01:26:22.650Z,12.67
2019-04-20T01:29:09.132Z,11.73
2019-04-20T01:31:38.340Z,11.63
2019-04-20T01:34:22.972Z,11.87
2019-04-20T01:36:56.013Z,12.77
2019-04-20T01:39:27.657Z,12.30
2019-04-20T01:41:54.045Z,11.87
2019-04-20T01:44:35.646Z,12.60
2019-04-20T01:47:06.331Z,11.77
2019-04-20T01:49:40.250Z,11.53
2019-04-20T01:52:20.055Z,11.43
2019-04-20T01:55:28.831Z,12.73
2019-04-20T01:58:06.119Z,13.30
2019-04-20T02:00:44.940Z,11.97
2019-04-20T02:03:31.151Z,12.07
2019-04-20T02:06:09.865Z,13.23
2019-04-20T02:08:40.104Z,12.53
2019-04-20T02:11:21.279Z,11.53
2019-04-20T02:13:55.126Z,12.13
2019-04-20T02:16:34.924Z,12.83
2019-04-20T02:19:13.871Z,11.80
2019-04-20T02:21:51.672Z,13.73
2019-04-20T02:24:12.659Z,12.90
2019-04-20T02:26:47.225Z,12.33
2019-04-20T02:29:48.916Z,13.13
2019-04-20T02:32:23.809Z,12.30
2019-04-20T02:34:59.272Z,12.70
2019-04-20T02:40:21.153Z,13.40
2019-04-20T02:42:59.810Z,11.87
2019-04-20T02:45:33.337Z,12.63
2019-04-20T02:48:13.990Z,13.77
2019-04-20T02:50:44.568Z,13.00
2019-04-20T02:53:41.421Z,13.97
2019-04-20T02:58:27.134Z,13.77
2019-04-20T03:00:57.126Z,12.30
2019-04-20T03:03:17.014Z,13.13
2019-04-20T03:05:52.054Z,12.40
2019-04-20T03:08:30.527Z,12.37
2019-04-20T03:11:16.162Z,12.33
2019-04-20T03:13:50.220Z,12.20
2019-04-20T03:16:20.442Z,13.73
2019-04-20T03:18:53.742Z,13.07
2019-04-20T03:21:39.358Z,12.07
2019-04-20T03:24:12.676Z,13.20
2019-04-20T03:26:51.539Z,23.33
2019-04-20T03:29:24.534Z,11.93
2019-04-20T03:37:27.888Z,13.53
2019-04-20T03:39:52.966Z,12.50
2019-04-20T03:42:12.596Z,12.77
2019-04-20T03:44:52.946Z,13.80
2019-04-20T03:47:33.779Z,14.27
2019-04-20T03:50:24.947Z,13.43
2019-04-20T03:53:04.422Z,13.23
2019-04-20T03:55:37.040Z,13.03
2019-04-20T03:58:18.818Z,12.93
2019-04-20T04:00:57.280Z,12.97
2019-04-20T04:03:47.374Z,13.17
2019-04-20T04:06:09.583Z,14.67
2019-04-20T04:08:39.430Z,13.07
2019-04-20T04:11:27.658Z,13.60
2019-04-20T04:13:44.226Z,12.93
2019-04-20T04:16:20.722Z,14.23
2019-04-20T04:19:01.395Z,13.50
2019-04-20T04:21:44.708Z,13.23
2019-04-20T04:24:16.959Z,12.90
2019-04-20T04:26:54.854Z,13.50
2019-04-20T04:29:35.651Z,12.53
2019-04-20T04:32:25.049Z,13.03
2019-04-20T04:34:47.868Z,14.40
2019-04-20T04:37:20.569Z,13.10
2019-04-20T04:40:01.176Z,12.83
2019-04-20T04:42:37.778Z,13.53
2019-04-20T04:44:57.601Z,12.60
2019-04-20T04:47:23.927Z,13.20
2019-04-20T04:50:05.623Z,13.93
2019-04-20T04:52:43.152Z,15.17
2019-04-20T04:55:22.186Z,14.13
2019-04-20T04:57:45.388Z,13.53
2019-04-20T05:00:25.512Z,13.90
2019-04-20T05:03:02.020Z,13.03
2019-04-20T05:05:48.678Z,14.63
2019-04-20T05:08:15.438Z,13.20
2019-04-20T05:10:44.136Z,13.27
2019-04-20T05:13:17.827Z,13.87
2019-04-20T05:16:05.245Z,13.87
2019-04-20T05:18:51.703Z,13.10
2019-04-20T05:21:20.771Z,12.60
2019-04-20T05:23:53.587Z,12.43
2019-04-20T05:26:37.541Z,12.90
2019-04-20T05:29:03.451Z,13.07
2019-04-20T05:31:36.096Z,13.03
2019-04-20T05:34:25.704Z,13.83
2019-04-20T05:36:58.124Z,13.10
2019-04-20T05:39:38.178Z,12.53
2019-04-20T05:42:13.332Z,13.13
2019-04-20T05:44:49.853Z,12.97
2019-04-20T05:47:22.318Z,13.17
2019-04-20T05:49:56.071Z,12.77
2019-04-20T05:55:09.969Z,13.43
2019-04-20T05:57:46.260Z,13.20
2019-04-20T06:00:22.692Z,13.07
2019-04-20T06:02:56.005Z,12.80
2019-04-20T06:05:36.711Z,13.97
2019-04-20T06:08:05.190Z,13.27
2019-04-20T06:10:45.631Z,13.27
2019-04-20T06:13:17.296Z,12.57
2019-04-20T06:16:02.533Z,13.70
2019-04-20T06:18:38.074Z,13.23
2019-04-20T06:21:29.062Z,12.97
2019-04-20T06:23:59.497Z,13.00
2019-04-20T06:29:05.137Z,13.13
2019-04-20T06:31:40.983Z,12.70
2019-04-20T06:36:57.235Z,13.07
2019-04-20T06:44:41.383Z,12.40
2019-04-20T06:47:42.739Z,13.00
2019-04-20T06:50:00.419Z,12.93
2019-04-20T06:52:32.398Z,13.10
2019-04-20T06:57:45.090Z,12.33
2019-04-20T07:00:20.823Z,12.70
2019-04-20T07:02:53.931Z,12.00
2019-04-20T07:05:33.001Z,12.20
2019-04-20T07:08:31.465Z,12.50
2019-04-20T07:10:53.165Z,12.27
2019-04-20T07:13:11.598Z,12.63
2019-04-20T07:15:56.837Z,11.83
2019-04-20T07:18:43.530Z,11.40
2019-04-20T07:21:27.335Z,12.50
2019-04-20T07:24:00.238Z,13.13
2019-04-20T07:26:29.149Z,12.23
2019-04-20T07:29:11.801Z,12.80
2019-04-20T07:31:36.093Z,12.43
2019-04-20T07:34:15.702Z,12.83
2019-04-20T07:37:04.594Z,12.37
2019-04-20T07:39:28.100Z,13.07
2019-04-20T07:42:10.849Z,13.20
2019-04-20T07:44:41.420Z,13.03
2019-04-20T07:47:23.091Z,13.03
2019-04-20T07:49:46.985Z,12.67
2019-04-20T07:52:03.932Z,12.83
2019-04-20T07:55:19.110Z,13.40
2019-04-20T07:57:31.255Z,13.13
2019-04-20T08:00:08.530Z,13.60
2019-04-20T08:03:03.618Z,13.87
2019-04-20T08:05:34.280Z,13.47
2019-04-20T08:08:20.686Z,13.67
2019-04-20T08:10:51.504Z,13.27
2019-04-20T08:16:08.406Z,13.57
2019-04-20T08:18:48.717Z,14.37
2019-04-20T08:21:17.912Z,14.53
2019-04-20T08:23:54.158Z,13.63
2019-04-20T08:26:15.750Z,14.07
2019-04-20T08:28:51.908Z,13.57
2019-04-20T08:31:33.404Z,14.60
2019-04-20T08:34:28.122Z,13.00
2019-04-20T08:36:57.067Z,12.50
2019-04-20T08:39:45.111Z,12.60
2019-04-20T08:42:05.791Z,13.30
2019-04-20T08:47:35.128Z,12.73
2019-04-20T08:50:13.724Z,13.13
2019-04-20T08:55:19.604Z,13.50
2019-04-20T08:57:35.629Z,13.07
2019-04-20T09:00:11.066Z,13.03
2019-04-20T09:02:52.138Z,12.73
2019-04-20T09:05:32.971Z,13.87
2019-04-20T09:08:06.946Z,12.00
2019-04-20T09:10:49.583Z,12.63
2019-04-20T09:13:18.690Z,12.20
2019-04-20T09:15:42.543Z,11.73
2019-04-20T09:18:36.427Z,12.97
2019-04-20T09:21:15.462Z,13.07
2019-04-20T09:23:57.718Z,13.13
2019-04-20T09:26:35.006Z,12.07
2019-04-20T09:29:05.894Z,12.27
2019-04-20T09:31:43.753Z,13.17
2019-04-20T09:34:39.545Z,13.03
2019-04-20T09:37:27.931Z,12.70
2019-04-20T09:40:10.835Z,12.47
2019-04-20T09:42:22.752Z,13.03
2019-04-20T09:44:59.708Z,12.57
2019-04-20T09:47:36.820Z,12.87
2019-04-20T09:50:22.571Z,13.20
2019-04-20T09:53:01.275Z,12.67
2019-04-20T09:55:31.336Z,13.53
2019-04-20T09:58:04.926Z,13.23
2019-04-20T10:00:58.317Z,12.83
2019-04-20T10:03:20.472Z,13.20
2019-04-20T10:05:54.229Z,13.50
2019-04-20T10:08:29.251Z,13.20
2019-04-20T10:11:03.542Z,13.30
2019-04-20T10:13:38.329Z,12.93
2019-04-20T10:16:13.455Z,14.47
2019-04-20T10:18:51.692Z,11.90
2019-04-20T10:21:23.609Z,12.50
2019-04-20T10:23:58.810Z,12.80
2019-04-20T10:26:32.675Z,11.33
2019-04-20T10:29:07.729Z,11.37
2019-04-20T10:31:44.598Z,12.70
2019-04-20T10:34:18.026Z,11.07
2019-04-20T10:36:55.442Z,10.93
2019-04-20T10:39:30.923Z,10.47
2019-04-20T10:42:05.905Z,10.07
2019-04-20T10:44:40.973Z,9.83
2019-04-20T10:47:14.835Z,9.10
2019-04-20T10:49:49.274Z,10.47
2019-04-20T10:52:23.618Z,10.23
2019-04-20T10:54:58.524Z,9.53
2019-04-20T10:57:33.420Z,10.17
2019-04-20T11:00:09.992Z,9.90
2019-04-20T11:02:45.783Z,9.80
2019-04-20T11:05:24.505Z,10.57
2019-04-20T11:07:57.212Z,9.90
2019-04-20T11:10:46.838Z,9.63
2019-04-20T11:13:07.386Z,9.40
2019-04-20T11:15:42.197Z,9.83
2019-04-20T11:18:17.599Z,10.00
2019-04-20T11:20:51.449Z,9.37
2019-04-20T11:23:26.511Z,9.57
2019-04-20T11:26:00.364Z,9.00
2019-04-20T11:28:34.408Z,9.43
2019-04-20T11:31:08.212Z,9.60
2019-04-20T11:33:42.542Z,9.67
2019-04-20T11:36:17.119Z,10.10
2019-04-20T11:38:51.222Z,11.13
2019-04-20T11:41:26.075Z,10.47
2019-04-20T11:44:00.384Z,10.37
2019-04-20T11:46:34.564Z,10.83
2019-04-20T11:49:09.671Z,11.00
2019-04-20T11:51:43.559Z,10.27
2019-04-20T11:54:18.596Z,10.57
2019-04-20T11:56:53.298Z,10.63
2019-04-20T11:59:27.442Z,10.57
2019-04-20T12:02:10.784Z,11.80
2019-04-20T12:04:51.972Z,11.30
2019-04-20T12:07:22.616Z,14.70
2019-04-20T12:09:59.434Z,10.90
2019-04-20T12:12:40.022Z,10.83
2019-04-20T12:15:08.554Z,12.23
2019-04-20T12:17:42.370Z,12.00
2019-04-20T12:20:16.714Z,12.03
2019-04-20T12:22:50.527Z,12.27
2019-04-20T12:25:24.271Z,12.53
2019-04-20T12:28:00.587Z,11.93
2019-04-20T12:30:33.556Z,12.20
2019-04-20T12:33:07.553Z,12.07
2019-04-20T12:35:42.565Z,13.13
2019-04-20T12:38:17.143Z,12.90
2019-04-20T12:40:52.357Z,12.67
2019-04-20T12:43:27.676Z,11.67
2019-04-20T12:46:02.218Z,11.93
2019-04-20T12:48:36.056Z,11.07
2019-04-20T12:51:11.292Z,14.23
2019-04-20T12:53:45.079Z,11.73
2019-04-20T12:56:18.723Z,11.43
2019-04-20T12:58:53.627Z,11.80
2019-04-20T13:01:28.036Z,13.20
2019-04-20T13:04:04.479Z,12.03
2019-04-20T13:06:38.967Z,11.10
2019-04-20T13:09:12.896Z,12.40
2019-04-20T13:12:09.805Z,11.80
2019-04-20T13:14:56.633Z,11.67
2019-04-20T13:17:30.516Z,12.40
2019-04-20T13:20:07.898Z,12.17
2019-04-20T13:22:41.635Z,11.37
2019-04-20T13:25:16.862Z,10.43
2019-04-20T13:27:51.005Z,11.63
2019-04-20T13:30:25.890Z,12.87
2019-04-20T13:32:59.719Z,12.00
2019-04-20T13:35:34.320Z,11.20
2019-04-20T13:38:08.123Z,11.70
2019-04-20T13:40:41.876Z,11.60
2019-04-20T13:43:15.624Z,10.97
2019-04-20T13:45:49.336Z,11.13
2019-04-20T13:48:23.027Z,11.23
2019-04-20T13:50:58.152Z,11.80
2019-04-20T13:53:32.965Z,11.90
2019-04-20T13:56:07.845Z,11.80
2019-04-20T13:58:43.617Z,10.93
2019-04-20T14:01:19.078Z,12.70
2019-04-20T14:04:06.820Z,12.13
2019-04-20T14:06:41.474Z,11.30
2019-04-20T14:09:15.207Z,11.57
2019-04-20T14:11:49.474Z,10.83
2019-04-20T14:14:23.483Z,11.97
2019-04-20T14:16:57.199Z,11.73
2019-04-20T14:19:31.433Z,12.47
2019-04-20T14:22:06.125Z,12.20
2019-04-20T14:24:42.611Z,13.17
2019-04-20T14:27:17.068Z,12.80
2019-04-20T14:29:51.058Z,11.97
2019-04-20T14:32:25.027Z,12.93
2019-04-20T14:34:58.866Z,11.53
2019-04-20T14:37:33.001Z,11.17
2019-04-20T14:40:08.454Z,11.43
2019-04-20T14:42:47.792Z,10.27
2019-04-20T14:45:18.598Z,12.77
2019-04-20T14:47:52.281Z,11.83
2019-04-20T14:50:26.035Z,12.77
2019-04-20T14:52:59.859Z,13.17
2019-04-20T14:55:33.603Z,12.00
2019-04-20T14:58:08.955Z,12.57
2019-04-20T15:00:58.856Z,11.63
2019-04-20T15:03:38.331Z,12.33
2019-04-20T15:06:12.095Z,12.90
2019-04-20T15:08:45.804Z,11.90
2019-04-20T15:11:20.853Z,12.93
2019-04-20T15:13:54.563Z,11.97
2019-04-20T15:16:28.720Z,11.57
2019-04-20T15:19:05.284Z,12.37
2019-04-20T15:21:41.773Z,12.30
2019-04-20T15:24:15.634Z,12.07
2019-04-20T15:30:11.954Z,12.13
2019-04-20T15:35:40.050Z,11.57
2019-04-20T15:38:13.748Z,12.53
2019-04-20T15:40:47.517Z,12.17
2019-04-20T15:43:24.372Z,11.60
2019-04-20T15:45:57.303Z,11.70
2019-04-20T15:48:32.178Z,12.10
2019-04-20T15:51:05.963Z,12.50
2019-04-20T15:53:39.867Z,12.60
2019-04-20T15:56:14.459Z,10.03
2019-04-20T15:58:48.435Z,11.33
2019-04-20T16:01:23.845Z,10.97
2019-04-20T16:04:05.555Z,10.77
2019-04-20T16:06:39.391Z,10.83
2019-04-20T16:09:14.259Z,11.07
2019-04-20T16:11:48.893Z,11.17
2019-04-20T16:14:23.764Z,12.17
2019-04-20T16:16:58.278Z,11.77
2019-04-20T16:19:41.793Z,12.73
2019-04-20T16:22:07.911Z,10.50
2019-04-20T16:24:44.843Z,11.07
2019-04-20T16:27:29.721Z,11.00
2019-04-20T16:30:05.562Z,10.43
2019-04-20T16:32:40.556Z,10.53
2019-04-20T16:35:14.602Z,11.53
2019-04-20T16:37:48.607Z,10.13
2019-04-20T16:40:23.411Z,12.23
2019-04-20T16:42:58.518Z,11.87
2019-04-20T16:45:32.985Z,12.27
2019-04-20T16:48:06.896Z,11.33
2019-04-20T16:50:42.629Z,11.30
2019-04-20T16:53:17.047Z,11.50
2019-04-20T16:55:50.860Z,10.27
2019-04-20T16:58:25.810Z,12.63
2019-04-20T17:00:59.717Z,11.77
2019-04-20T17:03:44.353Z,12.83
2019-04-20T17:06:09.164Z,11.27
2019-04-20T17:08:44.524Z,11.17
2019-04-20T17:11:18.292Z,13.40
2019-04-20T17:13:56.232Z,11.40
2019-04-20T17:16:28.003Z,12.37
2019-04-20T17:19:01.814Z,11.77
2019-04-20T17:21:35.965Z,12.00
2019-04-20T17:24:11.336Z,12.43
2019-04-20T17:26:47.229Z,12.17
2019-04-20T17:29:23.943Z,12.67
2019-04-20T17:32:05.586Z,13.13
2019-04-20T17:34:53.871Z,11.23
2019-04-20T17:37:15.004Z,12.60
2019-04-20T17:40:12.837Z,11.77
2019-04-20T17:42:42.300Z,12.47
2019-04-20T17:45:06.682Z,12.43
2019-04-20T17:47:51.285Z,13.60
2019-04-20T17:50:24.497Z,12.30
2019-04-20T17:53:02.781Z,12.37
2019-04-20T17:55:32.307Z,12.93
2019-04-20T17:58:01.665Z,11.93
2019-04-20T18:00:51.127Z,12.17
2019-04-20T18:04:00.430Z,12.27
2019-04-20T18:06:21.560Z,12.90
2019-04-20T18:08:56.415Z,11.67
2019-04-20T18:11:16.706Z,11.93
2019-04-20T18:13:49.301Z,11.50
2019-04-20T18:16:46.972Z,11.90
2019-04-20T18:19:10.873Z,15.97
2019-04-20T18:21:43.580Z,13.03
2019-04-20T18:24:41.252Z,13.50
2019-04-20T18:27:14.161Z,13.90
2019-04-20T18:29:45.513Z,15.30
2019-04-20T18:32:20.223Z,15.67
2019-04-20T18:34:59.184Z,16.37
2019-04-20T18:37:32.621Z,16.53
2019-04-20T18:40:12.438Z,17.10
2019-04-20T18:42:45.628Z,16.43
2019-04-20T18:45:38.128Z,15.60
2019-04-20T18:48:14.658Z,16.20
2019-04-20T18:50:35.575Z,16.87
2019-04-20T18:53:05.884Z,18.90
2019-04-20T18:55:47.047Z,19.30
2019-04-20T18:58:15.301Z,17.77
2019-04-20T19:00:51.781Z,19.80
2019-04-20T19:03:31.160Z,20.93
2019-04-20T19:06:00.167Z,20.73
2019-04-20T19:08:40.415Z,22.70
2019-04-20T19:11:14.575Z,23.67
2019-04-20T19:13:49.820Z,23.77
2019-04-20T19:16:33.423Z,23.50
2019-04-20T19:19:19.440Z,24.13
2019-04-20T19:21:41.302Z,24.00
2019-04-20T19:24:18.276Z,22.73
2019-04-20T19:26:55.620Z,23.67
2019-04-20T19:29:33.375Z,23.87
2019-04-20T19:32:19.533Z,22.50
2019-04-20T19:34:50.099Z,18.20
2019-04-20T19:37:23.201Z,15.50
2019-04-20T19:40:02.881Z,16.37
2019-04-20T19:42:34.719Z,14.90
2019-04-20T19:45:27.769Z,15.03
2019-04-20T19:47:51.193Z,15.07
2019-04-20T19:50:35.626Z,14.43
2019-04-20T19:53:11.168Z,15.60
2019-04-20T19:55:40.511Z,14.63
2019-04-20T19:58:13.331Z,15.97
2019-04-20T20:00:55.382Z,14.47
2019-04-20T20:03:29.958Z,15.03
2019-04-20T20:06:03.992Z,14.67
2019-04-20T20:08:39.977Z,16.03
2019-04-20T20:11:21.227Z,16.00
2019-04-20T20:13:53.508Z,16.10
2019-04-20T20:16:33.671Z,17.13
2019-04-20T20:19:08.446Z,17.20
2019-04-20T20:21:50.601Z,20.33
2019-04-20T20:24:12.278Z,19.57
2019-04-20T20:26:52.717Z,19.20
2019-04-20T20:29:30.460Z,18.80
2019-04-20T20:32:11.942Z,19.93
2019-04-20T20:34:38.276Z,17.67
2019-04-20T20:37:11.084Z,17.73
2019-04-20T20:39:53.626Z,18.70
2019-04-20T20:42:30.490Z,19.30
2019-04-20T20:45:06.965Z,19.37
2019-04-20T20:47:49.361Z,19.63
2019-04-20T20:50:28.436Z,21.10
2019-04-20T20:52:54.840Z,19.30
2019-04-20T20:55:29.436Z,20.30
2019-04-20T20:58:01.781Z,20.43
2019-04-20T21:00:38.812Z,20.60
2019-04-20T21:03:09.176Z,19.47
2019-04-20T21:05:41.847Z,21.13
2019-04-20T21:08:15.725Z,23.50
2019-04-20T21:10:50.958Z,19.97
2019-04-20T21:13:26.557Z,19.10
2019-04-20T21:16:07.118Z,21.17
2019-04-20T21:18:50.202Z,20.87
2019-04-20T21:21:23.076Z,21.67
2019-04-20T21:23:56.783Z,20.20
2019-04-20T21:26:30.491Z,19.30
2019-04-20T21:28:59.660Z,19.93
2019-04-20T21:31:34.382Z,19.77
2019-04-20T21:34:13.131Z,21.40
2019-04-20T21:36:43.578Z,20.30
2019-04-20T21:39:30.131Z,21.93
2019-04-20T21:41:57.212Z,20.77
2019-04-20T21:44:33.669Z,18.37
2019-04-20T21:47:04.875Z,19.10
2019-04-20T21:49:51.999Z,18.80
2019-04-20T21:52:21.272Z,18.87
2019-04-20T21:54:49.949Z,18.70
2019-04-20T21:57:24.190Z,17.97
2019-04-20T22:00:08.615Z,20.60
2019-04-20T22:02:41.286Z,21.37
2019-04-20T22:05:09.507Z,21.13
2019-04-20T22:07:44.252Z,21.20
2019-04-20T22:10:23.830Z,20.30
2019-04-20T22:12:58.700Z,20.23
2019-04-20T22:15:33.302Z,21.07
2019-04-20T22:18:07.758Z,21.00
2019-04-20T22:20:54.506Z,21.20
2019-04-20T22:23:32.837Z,20.90
2019-04-20T22:26:03.878Z,21.30
2019-04-20T22:28:26.539Z,20.67
2019-04-20T22:31:00.369Z,20.17
2019-04-20T22:33:41.191Z,22.03
2019-04-20T22:36:14.522Z,19.83
2019-04-20T22:39:09.541Z,20.77
2019-04-20T22:41:52.461Z,19.87
2019-04-20T22:44:24.507Z,20.70
2019-04-20T22:46:56.745Z,21.80
2019-04-20T22:49:47.283Z,22.43
2019-04-20T22:52:23.333Z,19.93
2019-04-20T22:54:54.374Z,21.63
2019-04-20T22:57:31.803Z,20.60
2019-04-20T23:00:00.569Z,19.80
2019-04-20T23:02:28.622Z,19.20
2019-04-20T23:05:03.023Z,18.67
2019-04-20T23:07:36.948Z,18.43
2019-04-20T23:10:11.244Z,18.73
2019-04-20T23:12:50.987Z,16.97
2019-04-20T23:15:20.546Z,16.97
2019-04-20T23:17:54.283Z,18.40
2019-04-20T23:20:32.668Z,18.63
2019-04-20T23:23:03.453Z,21.73
2019-04-20T23:25:37.162Z,21.13
2019-04-20T23:28:14.729Z,20.07
2019-04-20T23:30:47.366Z,17.63
2019-04-20T23:33:22.083Z,17.87
2019-04-20T23:35:59.819Z,18.40
2019-04-20T23:38:32.718Z,17.20
2019-04-20T23:41:06.391Z,18.53
2019-04-20T23:43:43.062Z,17.77
2019-04-20T23:46:31.466Z,18.70
2019-04-20T23:49:27.772Z,17.00
2019-04-20T23:52:26.452Z,15.97
2019-04-20T23:54:37.184Z,15.23
2019-04-20T23:57:09.755Z,16.73
2019-04-20T23:59:46.250Z,17.57
